sensor_id;sensor_type;location;lat;lon;timestamp;P1;durP1;ratioP1;P2;durP2;ratioP2
62332;SDS011;48624;49.812;8.562;2023-08-17T00:01:20;9.20;;;4.47;;
62332;SDS011;48624;49.812;8.562;2023-08-17T00:03:45;7.03;;;4.03;;
62332;SDS011;48624;49.812;8.562;2023-08-17T00:06:11;6.22;;;4.10;;
62332;SDS011;48624;49.812;8.562;2023-08-17T00:08:36;9.55;;;5.20;;
62332;SDS011;48624;49.812;8.562;2023-08-17T00:11:01;9.20;;;4.57;;
62332;SDS011;48624;49.812;8.562;2023-08-17T00:13:26;4.72;;;3.85;;
62332;SDS011;48624;49.812;8.562;2023-08-17T00:15:53;9.02;;;4.00;;
62332;SDS011;48624;49.812;8.562;2023-08-17T00:18:18;7.85;;;4.70;;
62332;SDS011;48624;49.812;8.562;2023-08-17T00:20:44;9.25;;;4.05;;
62332;SDS011;48624;49.812;8.562;2023-08-17T00:23:09;7.82;;;4.30;;
62332;SDS011;48624;49.812;8.562;2023-08-17T00:25:35;5.85;;;3.65;;
62332;SDS011;48624;49.812;8.562;2023-08-17T00:28:00;7.75;;;4.00;;
62332;SDS011;48624;49.812;8.562;2023-08-17T00:30:25;6.75;;;4.35;;
62332;SDS011;48624;49.812;8.562;2023-08-17T00:32:51;8.85;;;4.72;;
62332;SDS011;48624;49.812;8.562;2023-08-17T00:35:16;6.57;;;4.40;;
62332;SDS011;48624;49.812;8.562;2023-08-17T00:37:41;6.63;;;4.20;;
62332;SDS011;48624;49.812;8.562;2023-08-17T00:40:07;6.88;;;4.38;;
62332;SDS011;48624;49.812;8.562;2023-08-17T00:42:32;9.05;;;5.00;;
62332;SDS011;48624;49.812;8.562;2023-08-17T00:44:58;7.57;;;5.10;;
62332;SDS011;48624;49.812;8.562;2023-08-17T00:47:23;11.20;;;5.55;;
62332;SDS011;48624;49.812;8.562;2023-08-17T00:49:49;9.82;;;5.72;;
62332;SDS011;48624;49.812;8.562;2023-08-17T00:52:16;9.30;;;5.28;;
62332;SDS011;48624;49.812;8.562;2023-08-17T00:54:41;9.82;;;5.32;;
62332;SDS011;48624;49.812;8.562;2023-08-17T00:57:08;9.38;;;5.72;;
62332;SDS011;48624;49.812;8.562;2023-08-17T00:59:34;8.82;;;5.72;;
62332;SDS011;48624;49.812;8.562;2023-08-17T01:02:00;10.18;;;5.10;;
62332;SDS011;48624;49.812;8.562;2023-08-17T01:04:26;10.75;;;6.22;;
62332;SDS011;48624;49.812;8.562;2023-08-17T01:06:51;9.57;;;5.47;;
62332;SDS011;48624;49.812;8.562;2023-08-17T01:09:16;11.65;;;5.75;;
62332;SDS011;48624;49.812;8.562;2023-08-17T01:12:01;9.43;;;5.88;;
62332;SDS011;48624;49.812;8.562;2023-08-17T01:14:37;12.30;;;5.82;;
62332;SDS011;48624;49.812;8.562;2023-08-17T01:17:15;12.48;;;6.18;;
62332;SDS011;48624;49.812;8.562;2023-08-17T01:19:47;12.13;;;6.93;;
62332;SDS011;48624;49.812;8.562;2023-08-17T01:22:14;12.32;;;6.68;;
62332;SDS011;48624;49.812;8.562;2023-08-17T01:24:45;11.02;;;6.72;;
62332;SDS011;48624;49.812;8.562;2023-08-17T01:27:11;12.43;;;7.10;;
62332;SDS011;48624;49.812;8.562;2023-08-17T01:29:36;13.65;;;7.40;;
62332;SDS011;48624;49.812;8.562;2023-08-17T01:34:50;14.40;;;7.55;;
62332;SDS011;48624;49.812;8.562;2023-08-17T01:37:22;13.45;;;7.28;;
62332;SDS011;48624;49.812;8.562;2023-08-17T01:39:52;11.73;;;7.03;;
62332;SDS011;48624;49.812;8.562;2023-08-17T01:42:22;10.63;;;6.78;;
62332;SDS011;48624;49.812;8.562;2023-08-17T01:44:49;12.90;;;7.78;;
62332;SDS011;48624;49.812;8.562;2023-08-17T01:47:14;17.13;;;8.00;;
62332;SDS011;48624;49.812;8.562;2023-08-17T01:49:40;13.32;;;8.48;;
62332;SDS011;48624;49.812;8.562;2023-08-17T01:52:05;15.15;;;8.27;;
62332;SDS011;48624;49.812;8.562;2023-08-17T01:54:31;17.98;;;8.60;;
62332;SDS011;48624;49.812;8.562;2023-08-17T01:56:56;17.42;;;8.30;;
62332;SDS011;48624;49.812;8.562;2023-08-17T01:59:22;15.18;;;8.40;;
62332;SDS011;48624;49.812;8.562;2023-08-17T02:01:47;16.85;;;8.88;;
62332;SDS011;48624;49.812;8.562;2023-08-17T02:04:13;15.80;;;8.68;;
62332;SDS011;48624;49.812;8.562;2023-08-17T02:06:39;17.67;;;9.30;;
62332;SDS011;48624;49.812;8.562;2023-08-17T02:09:05;16.52;;;9.27;;
62332;SDS011;48624;49.812;8.562;2023-08-17T02:11:30;17.05;;;9.40;;
62332;SDS011;48624;49.812;8.562;2023-08-17T02:13:55;21.25;;;10.80;;
62332;SDS011;48624;49.812;8.562;2023-08-17T02:16:21;23.42;;;11.13;;
62332;SDS011;48624;49.812;8.562;2023-08-17T02:18:46;24.77;;;12.63;;
62332;SDS011;48624;49.812;8.562;2023-08-17T02:21:11;28.60;;;13.55;;
62332;SDS011;48624;49.812;8.562;2023-08-17T02:23:37;24.88;;;11.77;;
62332;SDS011;48624;49.812;8.562;2023-08-17T02:26:02;23.42;;;11.77;;
62332;SDS011;48624;49.812;8.562;2023-08-17T02:28:28;26.83;;;12.07;;
62332;SDS011;48624;49.812;8.562;2023-08-17T02:30:56;26.30;;;12.23;;
62332;SDS011;48624;49.812;8.562;2023-08-17T02:33:23;26.50;;;12.18;;
62332;SDS011;48624;49.812;8.562;2023-08-17T02:35:49;26.02;;;13.27;;
62332;SDS011;48624;49.812;8.562;2023-08-17T02:38:15;30.30;;;13.10;;
62332;SDS011;48624;49.812;8.562;2023-08-17T02:40:40;26.80;;;11.93;;
62332;SDS011;48624;49.812;8.562;2023-08-17T02:43:06;24.42;;;12.43;;
62332;SDS011;48624;49.812;8.562;2023-08-17T02:45:33;25.52;;;12.48;;
62332;SDS011;48624;49.812;8.562;2023-08-17T02:47:58;28.52;;;12.40;;
62332;SDS011;48624;49.812;8.562;2023-08-17T02:50:24;26.08;;;12.25;;
62332;SDS011;48624;49.812;8.562;2023-08-17T02:52:49;23.95;;;12.52;;
62332;SDS011;48624;49.812;8.562;2023-08-17T02:55:14;35.45;;;14.75;;
62332;SDS011;48624;49.812;8.562;2023-08-17T02:57:40;24.73;;;12.90;;
62332;SDS011;48624;49.812;8.562;2023-08-17T03:00:05;34.30;;;15.38;;
62332;SDS011;48624;49.812;8.562;2023-08-17T03:02:31;34.03;;;14.77;;
62332;SDS011;48624;49.812;8.562;2023-08-17T03:04:57;44.00;;;17.65;;
62332;SDS011;48624;49.812;8.562;2023-08-17T03:07:22;42.88;;;17.90;;
62332;SDS011;48624;49.812;8.562;2023-08-17T03:09:47;50.88;;;19.25;;
62332;SDS011;48624;49.812;8.562;2023-08-17T03:12:12;64.90;;;22.40;;
62332;SDS011;48624;49.812;8.562;2023-08-17T03:14:38;60.47;;;21.35;;
62332;SDS011;48624;49.812;8.562;2023-08-17T03:17:03;78.70;;;24.08;;
62332;SDS011;48624;49.812;8.562;2023-08-17T03:19:28;82.20;;;24.17;;
62332;SDS011;48624;49.812;8.562;2023-08-17T03:21:55;68.05;;;22.33;;
62332;SDS011;48624;49.812;8.562;2023-08-17T03:24:21;72.80;;;23.27;;
62332;SDS011;48624;49.812;8.562;2023-08-17T03:26:46;80.97;;;24.85;;
62332;SDS011;48624;49.812;8.562;2023-08-17T03:29:11;86.57;;;25.13;;
62332;SDS011;48624;49.812;8.562;2023-08-17T03:31:37;78.88;;;24.17;;
62332;SDS011;48624;49.812;8.562;2023-08-17T03:34:03;93.45;;;28.33;;
62332;SDS011;48624;49.812;8.562;2023-08-17T03:36:29;89.57;;;25.40;;
62332;SDS011;48624;49.812;8.562;2023-08-17T03:38:54;97.30;;;28.00;;
62332;SDS011;48624;49.812;8.562;2023-08-17T03:41:20;102.82;;;24.88;;
62332;SDS011;48624;49.812;8.562;2023-08-17T03:43:48;91.13;;;24.98;;
62332;SDS011;48624;49.812;8.562;2023-08-17T03:46:14;94.20;;;25.42;;
62332;SDS011;48624;49.812;8.562;2023-08-17T03:48:39;97.72;;;26.05;;
62332;SDS011;48624;49.812;8.562;2023-08-17T03:51:04;104.43;;;25.42;;
62332;SDS011;48624;49.812;8.562;2023-08-17T03:53:29;99.50;;;24.85;;
62332;SDS011;48624;49.812;8.562;2023-08-17T03:55:55;102.53;;;25.73;;
62332;SDS011;48624;49.812;8.562;2023-08-17T03:58:20;116.70;;;27.55;;
62332;SDS011;48624;49.812;8.562;2023-08-17T04:00:49;119.65;;;28.30;;
62332;SDS011;48624;49.812;8.562;2023-08-17T04:03:15;105.30;;;27.10;;
62332;SDS011;48624;49.812;8.562;2023-08-17T04:05:41;107.55;;;27.27;;
62332;SDS011;48624;49.812;8.562;2023-08-17T04:08:06;110.93;;;30.17;;
62332;SDS011;48624;49.812;8.562;2023-08-17T04:10:31;108.82;;;28.85;;
62332;SDS011;48624;49.812;8.562;2023-08-17T04:12:57;108.80;;;28.42;;
62332;SDS011;48624;49.812;8.562;2023-08-17T04:15:22;103.78;;;27.10;;
62332;SDS011;48624;49.812;8.562;2023-08-17T04:17:47;101.85;;;27.30;;
62332;SDS011;48624;49.812;8.562;2023-08-17T04:20:13;106.35;;;27.45;;
62332;SDS011;48624;49.812;8.562;2023-08-17T04:22:38;99.22;;;25.40;;
62332;SDS011;48624;49.812;8.562;2023-08-17T04:25:04;100.18;;;27.15;;
62332;SDS011;48624;49.812;8.562;2023-08-17T04:27:29;103.82;;;27.17;;
62332;SDS011;48624;49.812;8.562;2023-08-17T04:29:54;101.53;;;26.27;;
62332;SDS011;48624;49.812;8.562;2023-08-17T04:32:20;94.63;;;25.00;;
62332;SDS011;48624;49.812;8.562;2023-08-17T04:34:45;92.00;;;24.85;;
62332;SDS011;48624;49.812;8.562;2023-08-17T04:37:11;88.30;;;25.52;;
62332;SDS011;48624;49.812;8.562;2023-08-17T04:39:36;85.70;;;23.40;;
62332;SDS011;48624;49.812;8.562;2023-08-17T04:42:02;87.80;;;24.40;;
62332;SDS011;48624;49.812;8.562;2023-08-17T04:44:28;78.50;;;23.77;;
62332;SDS011;48624;49.812;8.562;2023-08-17T04:46:53;95.50;;;24.63;;
62332;SDS011;48624;49.812;8.562;2023-08-17T04:49:19;82.18;;;23.58;;
62332;SDS011;48624;49.812;8.562;2023-08-17T04:51:44;78.72;;;22.92;;
62332;SDS011;48624;49.812;8.562;2023-08-17T04:54:09;88.40;;;24.05;;
62332;SDS011;48624;49.812;8.562;2023-08-17T04:56:38;77.65;;;23.85;;
62332;SDS011;48624;49.812;8.562;2023-08-17T04:59:03;81.10;;;23.00;;
62332;SDS011;48624;49.812;8.562;2023-08-17T05:01:29;67.00;;;21.48;;
62332;SDS011;48624;49.812;8.562;2023-08-17T05:03:54;85.55;;;23.90;;
62332;SDS011;48624;49.812;8.562;2023-08-17T05:06:19;82.97;;;24.95;;
62332;SDS011;48624;49.812;8.562;2023-08-17T05:08:45;75.30;;;23.30;;
62332;SDS011;48624;49.812;8.562;2023-08-17T05:11:10;74.50;;;22.27;;
62332;SDS011;48624;49.812;8.562;2023-08-17T05:13:35;64.15;;;22.17;;
62332;SDS011;48624;49.812;8.562;2023-08-17T05:16:01;65.80;;;21.55;;
62332;SDS011;48624;49.812;8.562;2023-08-17T05:18:26;65.07;;;20.73;;
62332;SDS011;48624;49.812;8.562;2023-08-17T05:20:51;54.42;;;19.08;;
62332;SDS011;48624;49.812;8.562;2023-08-17T05:23:17;59.78;;;18.38;;
62332;SDS011;48624;49.812;8.562;2023-08-17T05:25:45;49.08;;;17.65;;
62332;SDS011;48624;49.812;8.562;2023-08-17T05:28:11;53.60;;;17.63;;
62332;SDS011;48624;49.812;8.562;2023-08-17T05:30:36;53.80;;;17.80;;
62332;SDS011;48624;49.812;8.562;2023-08-17T05:33:02;48.13;;;17.30;;
62332;SDS011;48624;49.812;8.562;2023-08-17T05:35:27;46.53;;;16.17;;
62332;SDS011;48624;49.812;8.562;2023-08-17T05:37:52;40.55;;;13.55;;
62332;SDS011;48624;49.812;8.562;2023-08-17T05:40:18;37.22;;;13.85;;
62332;SDS011;48624;49.812;8.562;2023-08-17T05:42:43;38.25;;;14.30;;
62332;SDS011;48624;49.812;8.562;2023-08-17T05:45:09;35.15;;;14.52;;
62332;SDS011;48624;49.812;8.562;2023-08-17T05:47:34;30.35;;;14.55;;
62332;SDS011;48624;49.812;8.562;2023-08-17T05:50:00;28.33;;;11.88;;
62332;SDS011;48624;49.812;8.562;2023-08-17T05:52:25;25.95;;;10.05;;
62332;SDS011;48624;49.812;8.562;2023-08-17T05:54:50;24.40;;;9.85;;
62332;SDS011;48624;49.812;8.562;2023-08-17T05:57:15;23.65;;;10.68;;
62332;SDS011;48624;49.812;8.562;2023-08-17T05:59:41;22.92;;;10.02;;
62332;SDS011;48624;49.812;8.562;2023-08-17T06:02:06;33.17;;;11.75;;
62332;SDS011;48624;49.812;8.562;2023-08-17T06:04:31;22.15;;;10.27;;
62332;SDS011;48624;49.812;8.562;2023-08-17T06:06:57;21.80;;;10.65;;
62332;SDS011;48624;49.812;8.562;2023-08-17T06:09:22;28.50;;;11.93;;
62332;SDS011;48624;49.812;8.562;2023-08-17T06:11:47;30.63;;;11.43;;
62332;SDS011;48624;49.812;8.562;2023-08-17T06:14:12;25.60;;;12.25;;
62332;SDS011;48624;49.812;8.562;2023-08-17T06:16:38;26.02;;;11.55;;
62332;SDS011;48624;49.812;8.562;2023-08-17T06:19:04;23.38;;;11.95;;
62332;SDS011;48624;49.812;8.562;2023-08-17T06:21:29;22.33;;;10.18;;
62332;SDS011;48624;49.812;8.562;2023-08-17T06:23:55;25.92;;;11.35;;
62332;SDS011;48624;49.812;8.562;2023-08-17T06:26:20;27.90;;;10.73;;
62332;SDS011;48624;49.812;8.562;2023-08-17T06:28:45;24.00;;;11.10;;
62332;SDS011;48624;49.812;8.562;2023-08-17T06:31:14;20.55;;;9.65;;
62332;SDS011;48624;49.812;8.562;2023-08-17T06:33:39;23.02;;;10.82;;
62332;SDS011;48624;49.812;8.562;2023-08-17T06:36:06;21.20;;;11.35;;
62332;SDS011;48624;49.812;8.562;2023-08-17T06:38:31;23.67;;;11.68;;
62332;SDS011;48624;49.812;8.562;2023-08-17T06:40:56;18.52;;;9.68;;
62332;SDS011;48624;49.812;8.562;2023-08-17T06:43:22;21.67;;;10.88;;
62332;SDS011;48624;49.812;8.562;2023-08-17T06:45:47;19.33;;;9.85;;
62332;SDS011;48624;49.812;8.562;2023-08-17T06:48:12;18.10;;;10.93;;
62332;SDS011;48624;49.812;8.562;2023-08-17T06:50:39;20.98;;;9.98;;
62332;SDS011;48624;49.812;8.562;2023-08-17T06:53:04;16.23;;;8.85;;
62332;SDS011;48624;49.812;8.562;2023-08-17T06:55:30;14.93;;;8.50;;
62332;SDS011;48624;49.812;8.562;2023-08-17T06:57:55;17.95;;;9.95;;
62332;SDS011;48624;49.812;8.562;2023-08-17T07:00:20;16.90;;;9.35;;
62332;SDS011;48624;49.812;8.562;2023-08-17T07:02:46;13.43;;;8.15;;
62332;SDS011;48624;49.812;8.562;2023-08-17T07:05:13;13.35;;;7.78;;
62332;SDS011;48624;49.812;8.562;2023-08-17T07:07:39;13.65;;;7.95;;
62332;SDS011;48624;49.812;8.562;2023-08-17T07:10:05;11.75;;;7.05;;
62332;SDS011;48624;49.812;8.562;2023-08-17T07:12:32;12.65;;;7.90;;
62332;SDS011;48624;49.812;8.562;2023-08-17T07:14:57;10.40;;;7.07;;
62332;SDS011;48624;49.812;8.562;2023-08-17T07:17:22;12.07;;;8.63;;
62332;SDS011;48624;49.812;8.562;2023-08-17T07:19:49;11.88;;;9.02;;
62332;SDS011;48624;49.812;8.562;2023-08-17T07:22:14;11.73;;;8.27;;
62332;SDS011;48624;49.812;8.562;2023-08-17T07:24:41;11.35;;;8.20;;
62332;SDS011;48624;49.812;8.562;2023-08-17T07:27:06;11.40;;;8.13;;
62332;SDS011;48624;49.812;8.562;2023-08-17T07:29:32;12.75;;;9.35;;
62332;SDS011;48624;49.812;8.562;2023-08-17T07:31:57;13.02;;;8.98;;
62332;SDS011;48624;49.812;8.562;2023-08-17T07:34:26;12.13;;;8.73;;
62332;SDS011;48624;49.812;8.562;2023-08-17T07:36:51;9.45;;;6.72;;
62332;SDS011;48624;49.812;8.562;2023-08-17T07:39:17;9.43;;;6.60;;
62332;SDS011;48624;49.812;8.562;2023-08-17T07:41:43;7.22;;;5.90;;
62332;SDS011;48624;49.812;8.562;2023-08-17T07:44:09;8.25;;;5.75;;
62332;SDS011;48624;49.812;8.562;2023-08-17T07:46:34;8.98;;;5.50;;
62332;SDS011;48624;49.812;8.562;2023-08-17T07:49:00;8.15;;;5.40;;
62332;SDS011;48624;49.812;8.562;2023-08-17T07:51:25;6.65;;;4.80;;
62332;SDS011;48624;49.812;8.562;2023-08-17T07:53:50;7.13;;;5.03;;
62332;SDS011;48624;49.812;8.562;2023-08-17T07:56:16;6.25;;;4.55;;
62332;SDS011;48624;49.812;8.562;2023-08-17T07:58:41;5.07;;;4.57;;
62332;SDS011;48624;49.812;8.562;2023-08-17T08:01:06;5.10;;;4.40;;
62332;SDS011;48624;49.812;8.562;2023-08-17T08:03:32;5.63;;;5.13;;
62332;SDS011;48624;49.812;8.562;2023-08-17T08:05:57;7.63;;;4.38;;
62332;SDS011;48624;49.812;8.562;2023-08-17T08:08:22;7.60;;;5.20;;
62332;SDS011;48624;49.812;8.562;2023-08-17T08:10:48;8.57;;;4.90;;
62332;SDS011;48624;49.812;8.562;2023-08-17T08:13:14;8.65;;;5.10;;
62332;SDS011;48624;49.812;8.562;2023-08-17T08:15:39;6.30;;;3.95;;
62332;SDS011;48624;49.812;8.562;2023-08-17T08:18:05;4.10;;;3.70;;
62332;SDS011;48624;49.812;8.562;2023-08-17T08:20:30;5.78;;;4.57;;
62332;SDS011;48624;49.812;8.562;2023-08-17T08:22:56;5.43;;;4.38;;
62332;SDS011;48624;49.812;8.562;2023-08-17T08:25:21;4.25;;;3.67;;
62332;SDS011;48624;49.812;8.562;2023-08-17T08:27:47;6.50;;;4.80;;
62332;SDS011;48624;49.812;8.562;2023-08-17T08:30:13;5.10;;;4.22;;
62332;SDS011;48624;49.812;8.562;2023-08-17T08:32:39;4.88;;;4.32;;
62332;SDS011;48624;49.812;8.562;2023-08-17T08:35:04;5.93;;;4.63;;
62332;SDS011;48624;49.812;8.562;2023-08-17T08:37:30;7.20;;;5.20;;
62332;SDS011;48624;49.812;8.562;2023-08-17T08:39:55;5.95;;;5.35;;
62332;SDS011;48624;49.812;8.562;2023-08-17T08:42:23;6.55;;;4.68;;
62332;SDS011;48624;49.812;8.562;2023-08-17T08:44:50;5.07;;;4.50;;
62332;SDS011;48624;49.812;8.562;2023-08-17T08:47:18;4.72;;;4.32;;
62332;SDS011;48624;49.812;8.562;2023-08-17T08:49:59;4.75;;;4.03;;
62332;SDS011;48624;49.812;8.562;2023-08-17T08:52:32;4.45;;;4.03;;
62332;SDS011;48624;49.812;8.562;2023-08-17T08:55:11;6.15;;;4.53;;
62332;SDS011;48624;49.812;8.562;2023-08-17T08:57:42;6.90;;;4.88;;
62332;SDS011;48624;49.812;8.562;2023-08-17T09:00:08;5.95;;;4.40;;
62332;SDS011;48624;49.812;8.562;2023-08-17T09:02:36;5.90;;;4.60;;
62332;SDS011;48624;49.812;8.562;2023-08-17T09:05:02;4.88;;;4.35;;
62332;SDS011;48624;49.812;8.562;2023-08-17T09:07:30;6.65;;;5.35;;
62332;SDS011;48624;49.812;8.562;2023-08-17T09:09:57;9.15;;;5.78;;
62332;SDS011;48624;49.812;8.562;2023-08-17T09:12:24;6.30;;;4.60;;
62332;SDS011;48624;49.812;8.562;2023-08-17T09:14:50;5.75;;;4.70;;
62332;SDS011;48624;49.812;8.562;2023-08-17T09:17:25;7.43;;;4.53;;
62332;SDS011;48624;49.812;8.562;2023-08-17T09:19:53;6.05;;;4.82;;
62332;SDS011;48624;49.812;8.562;2023-08-17T09:22:26;4.57;;;4.03;;
62332;SDS011;48624;49.812;8.562;2023-08-17T09:25:05;5.00;;;4.28;;
62332;SDS011;48624;49.812;8.562;2023-08-17T09:27:31;6.47;;;4.60;;
62332;SDS011;48624;49.812;8.562;2023-08-17T09:30:05;6.03;;;5.20;;
62332;SDS011;48624;49.812;8.562;2023-08-17T09:32:35;7.75;;;4.55;;
62332;SDS011;48624;49.812;8.562;2023-08-17T09:35:02;4.97;;;4.45;;
62332;SDS011;48624;49.812;8.562;2023-08-17T09:37:28;6.55;;;4.53;;
62332;SDS011;48624;49.812;8.562;2023-08-17T09:39:54;5.18;;;4.40;;
62332;SDS011;48624;49.812;8.562;2023-08-17T09:42:20;6.93;;;4.28;;
62332;SDS011;48624;49.812;8.562;2023-08-17T09:44:47;6.95;;;4.50;;
62332;SDS011;48624;49.812;8.562;2023-08-17T09:47:13;5.00;;;3.85;;
62332;SDS011;48624;49.812;8.562;2023-08-17T09:49:39;4.13;;;3.72;;
62332;SDS011;48624;49.812;8.562;2023-08-17T09:52:04;5.32;;;4.57;;
62332;SDS011;48624;49.812;8.562;2023-08-17T09:54:31;4.82;;;4.32;;
62332;SDS011;48624;49.812;8.562;2023-08-17T09:56:59;6.57;;;3.80;;
62332;SDS011;48624;49.812;8.562;2023-08-17T09:59:25;4.63;;;4.20;;
62332;SDS011;48624;49.812;8.562;2023-08-17T10:01:50;4.90;;;4.40;;
62332;SDS011;48624;49.812;8.562;2023-08-17T10:04:20;6.70;;;4.70;;
62332;SDS011;48624;49.812;8.562;2023-08-17T10:06:48;7.82;;;4.15;;
62332;SDS011;48624;49.812;8.562;2023-08-17T10:09:20;5.75;;;4.18;;
62332;SDS011;48624;49.812;8.562;2023-08-17T10:11:51;5.25;;;3.65;;
62332;SDS011;48624;49.812;8.562;2023-08-17T10:14:18;5.07;;;4.57;;
62332;SDS011;48624;49.812;8.562;2023-08-17T10:16:49;4.05;;;3.72;;
62332;SDS011;48624;49.812;8.562;2023-08-17T10:19:25;4.47;;;4.03;;
62332;SDS011;48624;49.812;8.562;2023-08-17T10:24:43;4.28;;;3.85;;
62332;SDS011;48624;49.812;8.562;2023-08-17T10:27:10;6.85;;;4.00;;
62332;SDS011;48624;49.812;8.562;2023-08-17T10:29:36;3.58;;;3.25;;
62332;SDS011;48624;49.812;8.562;2023-08-17T10:32:05;4.28;;;3.88;;
62332;SDS011;48624;49.812;8.562;2023-08-17T10:34:31;5.07;;;3.47;;
62332;SDS011;48624;49.812;8.562;2023-08-17T10:36:58;3.78;;;3.47;;
62332;SDS011;48624;49.812;8.562;2023-08-17T10:39:25;4.05;;;3.63;;
62332;SDS011;48624;49.812;8.562;2023-08-17T10:41:52;4.05;;;3.70;;
62332;SDS011;48624;49.812;8.562;2023-08-17T10:47:18;6.45;;;3.58;;
62332;SDS011;48624;49.812;8.562;2023-08-17T10:49:56;4.07;;;3.00;;
62332;SDS011;48624;49.812;8.562;2023-08-17T10:52:27;3.20;;;2.85;;
62332;SDS011;48624;49.812;8.562;2023-08-17T10:54:54;3.55;;;3.13;;
62332;SDS011;48624;49.812;8.562;2023-08-17T10:57:36;2.55;;;2.30;;
62332;SDS011;48624;49.812;8.562;2023-08-17T11:00:16;3.53;;;3.22;;
62332;SDS011;48624;49.812;8.562;2023-08-17T11:02:53;3.13;;;2.83;;
62332;SDS011;48624;49.812;8.562;2023-08-17T11:08:23;4.43;;;3.50;;
62332;SDS011;48624;49.812;8.562;2023-08-17T11:13:24;3.65;;;3.00;;
62332;SDS011;48624;49.812;8.562;2023-08-17T11:15:52;2.72;;;2.53;;
62332;SDS011;48624;49.812;8.562;2023-08-17T11:18:17;2.25;;;2.08;;
62332;SDS011;48624;49.812;8.562;2023-08-17T11:20:43;3.97;;;3.60;;
62332;SDS011;48624;49.812;8.562;2023-08-17T11:23:08;3.45;;;3.15;;
62332;SDS011;48624;49.812;8.562;2023-08-17T11:25:35;3.75;;;3.45;;
62332;SDS011;48624;49.812;8.562;2023-08-17T11:28:02;5.70;;;3.95;;
62332;SDS011;48624;49.812;8.562;2023-08-17T11:30:28;5.15;;;3.85;;
62332;SDS011;48624;49.812;8.562;2023-08-17T11:32:54;4.18;;;3.78;;
62332;SDS011;48624;49.812;8.562;2023-08-17T11:35:21;3.92;;;3.00;;
62332;SDS011;48624;49.812;8.562;2023-08-17T11:37:47;3.17;;;2.88;;
62332;SDS011;48624;49.812;8.562;2023-08-17T11:40:14;2.83;;;2.63;;
62332;SDS011;48624;49.812;8.562;2023-08-17T11:42:40;5.00;;;3.53;;
62332;SDS011;48624;49.812;8.562;2023-08-17T11:45:06;3.80;;;3.38;;
62332;SDS011;48624;49.812;8.562;2023-08-17T11:47:38;5.03;;;3.30;;
62332;SDS011;48624;49.812;8.562;2023-08-17T11:50:04;2.95;;;2.72;;
62332;SDS011;48624;49.812;8.562;2023-08-17T11:52:31;3.67;;;3.38;;
62332;SDS011;48624;49.812;8.562;2023-08-17T11:55:04;4.10;;;2.80;;
62332;SDS011;48624;49.812;8.562;2023-08-17T11:57:34;3.95;;;2.80;;
62332;SDS011;48624;49.812;8.562;2023-08-17T12:00:00;3.30;;;3.00;;
62332;SDS011;48624;49.812;8.562;2023-08-17T12:02:26;4.68;;;3.70;;
62332;SDS011;48624;49.812;8.562;2023-08-17T12:04:52;5.05;;;3.70;;
62332;SDS011;48624;49.812;8.562;2023-08-17T12:07:21;4.05;;;3.67;;
62332;SDS011;48624;49.812;8.562;2023-08-17T12:09:48;4.22;;;3.90;;
62332;SDS011;48624;49.812;8.562;2023-08-17T12:12:20;4.10;;;3.72;;
62332;SDS011;48624;49.812;8.562;2023-08-17T12:14:48;3.92;;;3.63;;
62332;SDS011;48624;49.812;8.562;2023-08-17T12:17:14;4.05;;;3.50;;
62332;SDS011;48624;49.812;8.562;2023-08-17T12:19:44;3.70;;;3.40;;
62332;SDS011;48624;49.812;8.562;2023-08-17T12:22:10;4.07;;;3.45;;
62332;SDS011;48624;49.812;8.562;2023-08-17T12:24:39;4.35;;;2.38;;
62332;SDS011;48624;49.812;8.562;2023-08-17T12:27:09;3.40;;;3.10;;
62332;SDS011;48624;49.812;8.562;2023-08-17T12:29:45;4.78;;;3.30;;
62332;SDS011;48624;49.812;8.562;2023-08-17T12:32:13;3.45;;;3.13;;
62332;SDS011;48624;49.812;8.562;2023-08-17T12:34:39;3.97;;;3.53;;
62332;SDS011;48624;49.812;8.562;2023-08-17T12:37:04;4.40;;;3.55;;
62332;SDS011;48624;49.812;8.562;2023-08-17T12:39:29;4.15;;;3.70;;
62332;SDS011;48624;49.812;8.562;2023-08-17T12:41:55;4.35;;;3.95;;
62332;SDS011;48624;49.812;8.562;2023-08-17T12:44:20;3.47;;;3.17;;
62332;SDS011;48624;49.812;8.562;2023-08-17T12:46:45;3.22;;;2.80;;
62332;SDS011;48624;49.812;8.562;2023-08-17T12:49:11;8.52;;;3.17;;
62332;SDS011;48624;49.812;8.562;2023-08-17T12:51:36;4.22;;;3.67;;
62332;SDS011;48624;49.812;8.562;2023-08-17T12:54:03;3.70;;;2.88;;
62332;SDS011;48624;49.812;8.562;2023-08-17T12:56:28;4.22;;;3.20;;
62332;SDS011;48624;49.812;8.562;2023-08-17T12:58:53;3.33;;;2.85;;
62332;SDS011;48624;49.812;8.562;2023-08-17T13:01:19;3.55;;;3.05;;
62332;SDS011;48624;49.812;8.562;2023-08-17T13:03:44;4.35;;;2.95;;
62332;SDS011;48624;49.812;8.562;2023-08-17T13:06:09;3.75;;;2.80;;
62332;SDS011;48624;49.812;8.562;2023-08-17T13:08:35;4.68;;;3.35;;
62332;SDS011;48624;49.812;8.562;2023-08-17T13:11:00;3.13;;;2.80;;
62332;SDS011;48624;49.812;8.562;2023-08-17T13:13:25;4.18;;;2.95;;
62332;SDS011;48624;49.812;8.562;2023-08-17T13:15:51;2.90;;;2.10;;
62332;SDS011;48624;49.812;8.562;2023-08-17T13:18:16;3.15;;;2.60;;
62332;SDS011;48624;49.812;8.562;2023-08-17T13:20:41;2.60;;;2.40;;
62332;SDS011;48624;49.812;8.562;2023-08-17T13:23:07;3.40;;;2.85;;
62332;SDS011;48624;49.812;8.562;2023-08-17T13:25:32;3.00;;;2.80;;
62332;SDS011;48624;49.812;8.562;2023-08-17T13:27:57;3.88;;;3.10;;
62332;SDS011;48624;49.812;8.562;2023-08-17T13:30:23;3.00;;;2.70;;
62332;SDS011;48624;49.812;8.562;2023-08-17T13:32:48;4.18;;;2.97;;
62332;SDS011;48624;49.812;8.562;2023-08-17T13:35:14;4.05;;;2.65;;
62332;SDS011;48624;49.812;8.562;2023-08-17T13:37:40;3.80;;;2.90;;
62332;SDS011;48624;49.812;8.562;2023-08-17T13:40:05;4.35;;;2.42;;
62332;SDS011;48624;49.812;8.562;2023-08-17T13:42:31;2.83;;;2.53;;
62332;SDS011;48624;49.812;8.562;2023-08-17T13:44:57;4.13;;;2.95;;
62332;SDS011;48624;49.812;8.562;2023-08-17T13:47:22;3.78;;;2.67;;
62332;SDS011;48624;49.812;8.562;2023-08-17T13:49:47;2.45;;;2.22;;
62332;SDS011;48624;49.812;8.562;2023-08-17T13:52:13;4.25;;;3.05;;
62332;SDS011;48624;49.812;8.562;2023-08-17T13:54:38;2.85;;;2.30;;
62332;SDS011;48624;49.812;8.562;2023-08-17T13:57:03;4.78;;;2.47;;
62332;SDS011;48624;49.812;8.562;2023-08-17T13:59:29;3.88;;;2.92;;
62332;SDS011;48624;49.812;8.562;2023-08-17T14:01:55;4.35;;;2.75;;
62332;SDS011;48624;49.812;8.562;2023-08-17T14:04:21;5.55;;;3.28;;
62332;SDS011;48624;49.812;8.562;2023-08-17T14:06:47;4.45;;;2.83;;
62332;SDS011;48624;49.812;8.562;2023-08-17T14:09:13;3.58;;;2.55;;
62332;SDS011;48624;49.812;8.562;2023-08-17T14:11:38;3.25;;;2.50;;
62332;SDS011;48624;49.812;8.562;2023-08-17T14:14:03;3.60;;;2.67;;
62332;SDS011;48624;49.812;8.562;2023-08-17T14:16:30;3.97;;;2.75;;
62332;SDS011;48624;49.812;8.562;2023-08-17T14:18:55;3.78;;;2.58;;
62332;SDS011;48624;49.812;8.562;2023-08-17T14:21:20;4.88;;;2.95;;
62332;SDS011;48624;49.812;8.562;2023-08-17T14:23:46;2.58;;;2.38;;
62332;SDS011;48624;49.812;8.562;2023-08-17T14:26:11;2.95;;;2.38;;
62332;SDS011;48624;49.812;8.562;2023-08-17T14:28:37;2.97;;;1.90;;
62332;SDS011;48624;49.812;8.562;2023-08-17T14:31:02;3.72;;;1.98;;
62332;SDS011;48624;49.812;8.562;2023-08-17T14:33:27;7.03;;;2.28;;
62332;SDS011;48624;49.812;8.562;2023-08-17T14:35:52;2.22;;;1.83;;
62332;SDS011;48624;49.812;8.562;2023-08-17T14:38:18;2.90;;;1.90;;
62332;SDS011;48624;49.812;8.562;2023-08-17T14:40:43;2.45;;;1.83;;
62332;SDS011;48624;49.812;8.562;2023-08-17T14:43:13;3.13;;;2.00;;
62332;SDS011;48624;49.812;8.562;2023-08-17T14:45:42;2.55;;;1.95;;
62332;SDS011;48624;49.812;8.562;2023-08-17T14:48:08;3.20;;;2.17;;